首页
METAR-TAF:

METAR-TAF

机场 :

Heringsdorf, 德国

纬度: 53-53N, 经度: 014-09E, 海拔: 28米

当前天气观测

该预报发布于8小时和46分钟前的13:50 UTC
风速13节,风向东北
温度 23°C
湿度 65%
气压 1022 hPa
能见度10公里或以上
1500米以下无云,无积雨云

METAR: EDAH 111350Z 05013KT CAVOK 23/16 Q1022

时间: 00:36 (22:36 UTC)

预报

该预报发布于8小时和36分钟前的14:00 UTC
预报有效从11日的 15点(UTC)到 11日的 24点(UTC)
风速12节,风向东北,有时为22节阵风
能见度10公里或以上
1500米以下无云,无积雨云
成为
从 11日的 21点(UTC)到 11日的 24点(UTC)
风速6节,风向东转东北

TAF: EDAH 111400Z 1115/1124 04012G22KT CAVOK BECMG 1121/1124 07006KT

超过4000个机场的气象观测和天气预报(METAR&TAF报告)。

可查询的气象台以黄色和红色小点在地图上表示。

将鼠标移到小点上方,可查看气象台名称。

然后点击查看天气观测和预报。

如需切换地图:点击带黑十字的绿色按钮放大地图;点击带横线的绿色按钮缩小地图;或者点击绿色箭头查看邻近地区的地图。


METAR-TAF: